메인 페이지
METAR-TAF:

METAR-TAF

공항 :

댈러스 포트워스 국제공항

댈러스 / 포트워스, 텍사스, 미국

위도: 32-53-49N, 경도: 097-01-19W, 고도: 183m

현재 날씨관측

예보는 32분 전, 06:53시(UTC)에 발표되었습니다.
11kt
온도 18°C
습도 59%
기압 1013 hPa
시정: 16.1km
고도 22000ft 상공 구름 보통
고도 25000ft 상공 구름 많음

METAR: KDFW 210653Z 17011KT 10SM SCT220 BKN250 18/10 A2990 RMK AO2 SLP120 T01830100

시각: 02:25 (07:25 UTC)

예보

예보는 2 시간 5분 전, 05:20시(UTC)에 발표되었습니다.
예보 대상 시간: 21일 06시부터 22일 12시까지 (UTC)
남남동10kt
시정: 10km
맑음
21일 1700시부터 (UTC)
23kt
시정: 10km
고도 25000ft 상공 구름 조금
22일 1000시부터 (UTC)
18kt
시정: 10km
고도 2200ft 상공 구름 많음

TAF: KDFW 210520Z 2106/2212 16010KT P6SM SKC FM211700 18023KT P6SM FEW250 FM221000 18018KT P6SM BKN022

4,000개 이상의 공항 관측 자료 및 예보 (METAR 및 TAF 보고).

지도상에서 검색 가능한 기상관측소가 노란 점과 빨간 점으로 표시되어 있습니다.

기상관측소 명을 보려면 표시 위로 마우스를 이동하세요.

날씨 관측과 예보를 보려면 클릭하세요.

지도 변경 : 확대하려면 엑스 표시가 있는 녹색 버튼, 축소하려면 빼기 표시가 있는 녹색 버튼, 다음 페이지의 지도를 보려면 녹색 화살표를 클릭하세요.


METAR-TAF: